Kake, AK (99830)

3:13 AM AKST on February 06, 2016 (GMT -0900)
Kake | | Change Station
CLOSE
Current Station
Airport
Location: Kake,
Elevation: 171 ft
Nearby Weather Stations

Elev 171 ft 56.96 °N, 133.91 °W | Updated 17 minutes ago

Overcast
Overcast
36 °F
Feels Like 28 °F
N
12
Wind Variable Wind from ESE
Gusts 18 mph

Today
High -- | Low -- °F
--% Chance of Precip.
Yesterday
High -- | Low -- °F
Precip. -- in
Pressure 29.90 in
Visibility 10.0 miles
Clouds Scattered Clouds 1200 ft
Mostly Cloudy 1600 ft
Overcast 3500 ft
Windchill 28 °F
Dew Point 30 °F
Humidity 81%
Rainfall 0.00 in
Snow Depth Not available.
7:44 AM 4:35 PM
Waning Crescent, 6% visible
METAR PAFE 061156Z AUTO 12010G16KT 10SM SCT012 BKN016 OVC035 02/M01 A2990 RMK AO1 10020 21010 52037
Pressure 29.90 in
Visibility 10.0 miles
Clouds Scattered Clouds 1200 ft
Mostly Cloudy 1600 ft
Overcast 3500 ft
Windchill 28 °F
Dew Point 30 °F
Humidity 81%
Rainfall 0.00 in
Snow Depth Not available.
7:44 AM 4:35 PM
Waning Crescent, 6% visible
METAR PAFE 061156Z AUTO 12010G16KT 10SM SCT012 BKN016 OVC035 02/M01 A2990 RMK AO1 10020 21010 52037

10-Day Weather Forecast

Almanac

Astronomy

Feb. 06, 2016 Rise Set
Actual Time
Civil Twilight
Nautical Twilight
Astronomical Twilight
Moon
Length of Visible Light
Length of Day
Tomorrow will be .
, % of the Moon is Illuminated

Today's Extremes

State Highs State Lows

Community

WunderPhotos

Upload Photos

1,890,944 photos uploaded!

WunderBlog® & News

Nearby

Air Quality

  Air Quality AQ Index Pollutant
Not available.

Snow Depth

Station Depth Elevation

Earthquake Activity

City Distance Mag. Time & Date
Minimum magnitude displayed is 2.5.

Coastal Water Temperatures

Place Temperature

Stations

Nearby Weather Stations

Station Location Temp. Windchill Dew Point Humidity Wind Precip. Elev Updated Type
                   

Watches & Warnings

There are currently no watches in effect.